Time;durP1;ratioP1;P1;durP2;ratioP2;P2;SDS_P1;SDS_P2;PMS_P1;PMS_P2;Temp;Humidity;BMP_temperature;BMP_pressure;BME280_temperature;BME280_humidity;BME280_pressure;Samples;Min_cycle;Max_cycle;Signal;HPM_P1;HPM_P2
2021/07/09 00:01:56;;;;;;;14.57;10.52;;;;;;;15.48;100.00;102173.66;3587471;40;20118;-61
2021/07/09 00:04:23;;;;;;;14.90;9.88;;;;;;;15.55;100.00;102172.09;3587029;40;20043;-61
2021/07/09 00:06:50;;;;;;;15.70;9.88;;;;;;;15.47;100.00;102160.22;3589188;40;20056;-61
2021/07/09 00:09:17;;;;;;;15.27;9.63;;;;;;;15.49;100.00;102161.81;3583208;40;20068;-61
2021/07/09 00:11:47;;;;;;;16.80;9.70;;;;;;;15.54;100.00;102153.25;3584992;40;20055;-63
2021/07/09 00:14:15;;;;;;;12.93;9.27;;;;;;;15.48;100.00;102159.22;3588574;40;20386;-62
2021/07/09 00:16:43;;;;;;;16.60;10.55;;;;;;;15.39;100.00;102163.63;3588516;40;20393;-62
2021/07/09 00:19:10;;;;;;;19.05;11.30;;;;;;;15.35;100.00;102162.16;3588429;40;20076;-61
2021/07/09 00:21:37;;;;;;;15.63;11.00;;;;;;;15.34;100.00;102157.72;3588539;40;20403;-61
2021/07/09 00:24:05;;;;;;;15.05;10.02;;;;;;;15.42;100.00;102150.63;3588428;40;20052;-62
2021/07/09 00:26:32;;;;;;;16.85;10.65;;;;;;;15.49;100.00;102152.78;3586933;40;20401;-61
2021/07/09 00:29:00;;;;;;;14.85;10.50;;;;;;;15.53;100.00;102157.84;3588883;40;20118;-61
2021/07/09 00:31:29;;;;;;;16.88;10.77;;;;;;;15.45;100.00;102159.50;3588611;40;20404;-61
2021/07/09 00:33:55;;;;;;;14.45;10.50;;;;;;;15.43;100.00;102156.94;3588487;40;20130;-62
2021/07/09 00:36:22;;;;;;;16.42;9.93;;;;;;;15.46;100.00;102156.66;3588324;40;20058;-61
2021/07/09 00:38:48;;;;;;;17.23;10.55;;;;;;;15.35;100.00;102152.16;3583953;40;20396;-62
2021/07/09 00:41:15;;;;;;;17.77;11.45;;;;;;;15.38;100.00;102151.88;3588777;40;20059;-61
2021/07/09 00:43:41;;;;;;;16.45;10.75;;;;;;;15.29;100.00;102158.13;3588774;40;20040;-61
2021/07/09 00:46:10;;;;;;;16.73;10.68;;;;;;;15.42;100.00;102155.19;3587325;40;20378;-61
2021/07/09 00:48:37;;;;;;;19.30;12.10;;;;;;;15.49;100.00;102155.50;3584413;40;20054;-61
2021/07/09 00:51:05;;;;;;;17.35;11.05;;;;;;;15.35;100.00;102144.03;3588213;40;20060;-61
2021/07/09 00:53:32;;;;;;;17.83;11.18;;;;;;;15.38;100.00;102149.19;3588633;40;20048;-61
2021/07/09 00:55:58;;;;;;;18.13;11.65;;;;;;;15.42;100.00;102150.63;3586839;40;20080;-61
2021/07/09 00:58:26;;;;;;;18.80;12.05;;;;;;;15.24;100.00;102152.28;3588442;40;20066;-61
2021/07/09 01:00:53;;;;;;;18.25;11.57;;;;;;;15.27;100.00;102154.72;3588235;40;20080;-61
2021/07/09 01:03:20;;;;;;;19.00;12.38;;;;;;;15.27;100.00;102153.84;3588507;40;20304;-61
2021/07/09 01:05:47;;;;;;;20.13;11.73;;;;;;;15.16;100.00;102143.94;3588122;40;20054;-62
2021/07/09 01:08:13;;;;;;;19.65;12.18;;;;;;;15.23;100.00;102150.53;3587328;40;20045;-61
2021/07/09 01:10:41;;;;;;;15.80;10.90;;;;;;;15.28;100.00;102153.69;3588687;40;20061;-61
2021/07/09 01:13:08;;;;;;;15.82;11.00;;;;;;;15.20;100.00;102145.41;3586967;40;20078;-61
2021/07/09 01:15:34;;;;;;;16.50;11.02;;;;;;;15.02;100.00;102153.28;3586682;40;20392;-61
2021/07/09 01:18:02;;;;;;;14.90;10.52;;;;;;;14.98;100.00;102149.97;3587971;40;20224;-62
2021/07/09 01:20:31;;;;;;;15.70;11.02;;;;;;;15.00;100.00;102150.72;3587296;40;20133;-61
2021/07/09 01:22:58;;;;;;;18.00;11.50;;;;;;;14.81;100.00;102156.00;3584997;40;20059;-61
2021/07/09 01:25:28;;;;;;;17.25;11.63;;;;;;;14.74;100.00;102149.38;3583481;40;20058;-61
2021/07/09 01:27:57;;;;;;;14.85;10.50;;;;;;;14.68;100.00;102154.34;3587079;40;20063;-61
2021/07/09 01:30:24;;;;;;;;;;;;;;;14.63;100.00;102150.31;3583032;40;20149;-61
2021/07/09 01:32:52;;;;;;;18.17;11.13;;;;;;;14.59;100.00;102152.41;3587582;40;19939;-61
2021/07/09 01:35:20;;;;;;;17.35;10.90;;;;;;;14.52;100.00;102156.63;3587507;40;20079;-61
2021/07/09 01:37:54;;;;;;;18.50;10.50;;;;;;;14.44;100.00;102151.88;3584292;40;20055;-61
2021/07/09 01:40:20;;;;;;;14.07;10.27;;;;;;;14.47;100.00;102148.00;3586772;40;20052;-60
2021/07/09 01:42:48;;;;;;;15.65;10.75;;;;;;;14.39;100.00;102139.69;3587238;40;20052;-60
2021/07/09 01:45:15;;;;;;;19.35;10.77;;;;;;;14.38;100.00;102155.06;3588287;40;20049;-61
2021/07/09 01:47:41;;;;;;;16.15;10.77;;;;;;;14.42;100.00;102145.69;3587460;40;20421;-61
2021/07/09 01:50:08;;;;;;;15.82;10.63;;;;;;;14.35;100.00;102156.19;3587505;40;20060;-61
2021/07/09 01:52:35;;;;;;;20.40;10.65;;;;;;;14.24;100.00;102147.25;3587484;40;20418;-61
2021/07/09 01:55:03;;;;;;;16.75;10.85;;;;;;;14.20;100.00;102147.50;3588054;40;20378;-60
2021/07/09 01:57:30;;;;;;;16.42;11.70;;;;;;;14.24;100.00;102149.97;3587533;40;20145;-61
2021/07/09 01:59:59;;;;;;;18.40;11.55;;;;;;;14.23;100.00;102143.69;3587571;40;20064;-60
2021/07/09 02:02:26;;;;;;;17.42;11.95;;;;;;;14.26;100.00;102145.28;3587594;40;20060;-60
2021/07/09 02:04:55;;;;;;;17.92;11.10;;;;;;;14.20;100.00;102146.66;3624284;22;21029;-61
2021/07/09 02:07:23;;;;;;;17.02;11.68;;;;;;;14.06;100.00;102146.94;3587662;40;20060;-61
2021/07/09 02:09:52;;;;;;;18.83;12.50;;;;;;;13.97;100.00;102140.44;3587202;40;20054;-61
2021/07/09 02:12:20;;;;;;;19.42;11.45;;;;;;;14.08;100.00;102147.69;3587454;40;20074;-60
2021/07/09 02:14:48;;;;;;;14.77;10.88;;;;;;;14.07;100.00;102145.94;3588389;40;20036;-61
2021/07/09 02:17:18;;;;;;;19.02;12.55;;;;;;;14.05;100.00;102150.66;3587813;40;20025;-62
2021/07/09 02:19:47;;;;;;;18.65;12.38;;;;;;;14.13;100.00;102157.16;3587901;40;20078;-61
2021/07/09 02:22:15;;;;;;;23.75;14.60;;;;;;;14.17;100.00;102160.44;3587366;40;20319;-60
2021/07/09 02:24:44;;;;;;;18.83;12.60;;;;;;;14.06;100.00;102161.34;3587543;40;20060;-60
2021/07/09 02:27:11;;;;;;;19.17;12.90;;;;;;;13.97;100.00;102165.66;3586880;40;20438;-61
2021/07/09 02:29:37;;;;;;;25.58;14.35;;;;;;;13.87;100.00;102167.41;3587208;40;20409;-60
2021/07/09 02:32:06;;;;;;;23.67;13.43;;;;;;;13.82;100.00;102166.91;3588556;40;20060;-60
2021/07/09 02:34:36;;;;;;;20.92;13.30;;;;;;;13.82;100.00;102166.91;3587412;40;20078;-60
2021/07/09 02:37:04;;;;;;;21.90;13.55;;;;;;;13.83;100.00;102164.06;3588723;40;20338;-61
2021/07/09 02:39:31;;;;;;;21.70;13.70;;;;;;;13.73;100.00;102156.84;3588652;40;20142;-60
2021/07/09 02:41:58;;;;;;;20.77;13.95;;;;;;;13.63;100.00;102154.91;3589708;40;20331;-60
2021/07/09 02:44:26;;;;;;;21.60;13.73;;;;;;;13.64;100.00;102162.00;3586809;40;20111;-61
2021/07/09 02:46:53;;;;;;;18.90;12.27;;;;;;;13.59;100.00;102158.84;3584706;40;20064;-60
2021/07/09 02:49:21;;;;;;;20.88;13.18;;;;;;;13.62;100.00;102152.31;3588261;40;20060;-60
2021/07/09 02:51:49;;;;;;;22.25;13.40;;;;;;;13.60;100.00;102155.16;3589368;40;20050;-60
2021/07/09 02:54:16;;;;;;;23.05;13.90;;;;;;;13.58;100.00;102157.09;3588700;40;20054;-61
2021/07/09 02:56:42;;;;;;;21.92;13.85;;;;;;;13.54;100.00;102155.63;3588979;40;20417;-60
2021/07/09 02:59:09;;;;;;;19.65;12.50;;;;;;;13.57;100.00;102155.38;3588792;40;20060;-60
2021/07/09 03:01:40;;;;;;;23.10;12.20;;;;;;;13.55;100.00;102151.09;3588213;40;20058;-60
2021/07/09 03:04:07;;;;;;;23.08;11.95;;;;;;;13.60;100.00;102149.75;3588314;40;20063;-61
2021/07/09 03:06:33;;;;;;;24.42;12.80;;;;;;;13.51;100.00;102145.06;3588923;40;20270;-60
2021/07/09 03:09:02;;;;;;;19.38;11.98;;;;;;;13.59;100.00;102149.84;3588272;40;20141;-60
2021/07/09 03:11:28;;;;;;;19.13;12.90;;;;;;;13.57;100.00;102149.13;3589179;40;20397;-60
2021/07/09 03:13:55;;;;;;;18.95;12.20;;;;;;;13.57;100.00;102154.53;3587914;40;20066;-60
2021/07/09 03:16:21;;;;;;;16.17;10.30;;;;;;;13.53;100.00;102151.22;3588948;40;20057;-60
2021/07/09 03:18:48;;;;;;;19.30;11.52;;;;;;;13.49;100.00;102147.88;3588390;40;20057;-60
2021/07/09 03:21:14;;;;;;;21.58;12.98;;;;;;;13.40;100.00;102150.50;3589263;40;20048;-60
2021/07/09 03:23:41;;;;;;;20.88;13.15;;;;;;;13.32;100.00;102146.50;3644142;22;20059;-60
2021/07/09 03:26:08;;;;;;;19.15;12.07;;;;;;;13.38;100.00;102147.88;3590774;40;20052;-61
2021/07/09 03:28:35;;;;;;;21.05;12.50;;;;;;;13.45;100.00;102154.50;3590587;40;20094;-60
2021/07/09 03:31:02;;;;;;;17.40;12.05;;;;;;;13.44;100.00;102147.41;3591951;40;20049;-60
2021/07/09 03:33:28;;;;;;;19.98;12.27;;;;;;;13.42;100.00;102145.81;3587864;40;20084;-60
2021/07/09 03:35:54;;;;;;;21.75;14.15;;;;;;;13.43;100.00;102151.09;3587223;40;20084;-60
2021/07/09 03:38:21;;;;;;;23.15;13.55;;;;;;;13.35;100.00;102145.41;3589078;40;20406;-60
2021/07/09 03:40:48;;;;;;;24.35;13.60;;;;;;;13.29;100.00;102149.47;3589312;40;20059;-60
2021/07/09 03:43:16;;;;;;;25.58;15.38;;;;;;;13.30;100.00;102148.47;3589817;40;20402;-60
2021/07/09 03:45:42;;;;;;;30.90;15.30;;;;;;;13.28;100.00;102145.03;3592298;40;20058;-61
2021/07/09 03:48:09;;;;;;;23.60;14.25;;;;;;;13.30;100.00;102137.66;3588960;40;20431;-61
2021/07/09 03:50:35;;;;;;;23.73;14.20;;;;;;;13.24;100.00;102138.16;3590808;40;20051;-60
2021/07/09 03:53:02;;;;;;;24.77;14.70;;;;;;;13.24;100.00;102143.56;3594513;40;20395;-62
2021/07/09 03:55:28;;;;;;;24.02;14.27;;;;;;;13.31;100.00;102144.78;3588564;40;20324;-61
2021/07/09 03:57:55;;;;;;;27.45;15.50;;;;;;;13.31;100.00;102143.94;3588747;40;20052;-61
2021/07/09 04:00:22;;;;;;;23.60;13.70;;;;;;;13.30;100.00;102143.06;3588469;40;20344;-61
2021/07/09 04:02:49;;;;;;;23.80;13.05;;;;;;;13.32;100.00;102135.69;3591469;40;20427;-61
2021/07/09 04:05:15;;;;;;;23.45;13.63;;;;;;;13.33;100.00;102142.81;3591303;40;20051;-61
2021/07/09 04:07:42;;;;;;;24.38;14.43;;;;;;;13.31;100.00;102139.38;3590850;40;20473;-61
2021/07/09 04:10:10;;;;;;;23.77;14.85;;;;;;;13.27;100.00;102143.31;3590528;40;20052;-60
2021/07/09 04:12:36;;;;;;;26.27;15.10;;;;;;;13.27;100.00;102140.59;3588752;40;20044;-60
2021/07/09 04:15:03;;;;;;;25.80;15.15;;;;;;;13.26;100.00;102141.56;3585735;40;20048;-61
2021/07/09 04:17:31;;;;;;;24.42;14.40;;;;;;;13.39;100.00;102146.06;3588993;40;20048;-61
2021/07/09 04:19:57;;;;;;;27.55;15.23;;;;;;;13.35;100.00;102142.72;3588385;40;20060;-61
2021/07/09 04:22:24;;;;;;;26.08;15.43;;;;;;;13.36;100.00;102146.31;3592364;40;20074;-60
2021/07/09 04:24:50;;;;;;;28.77;14.50;;;;;;;13.37;100.00;102142.59;3589952;40;20055;-60
2021/07/09 04:27:17;;;;;;;24.98;15.65;;;;;;;13.53;100.00;102136.81;3591752;40;20055;-61
2021/07/09 04:29:43;;;;;;;27.70;15.38;;;;;;;13.59;100.00;102139.91;3592803;40;20054;-61
2021/07/09 04:32:09;;;;;;;28.50;15.70;;;;;;;13.64;100.00;102140.38;3589468;40;20399;-61
2021/07/09 04:34:37;;;;;;;22.02;14.18;;;;;;;13.65;100.00;102147.50;3589613;40;20054;-61
2021/07/09 04:37:08;;;;;;;23.00;14.10;;;;;;;13.60;100.00;102151.56;3589338;40;20036;-61
2021/07/09 04:39:35;;;;;;;28.50;16.90;;;;;;;13.66;100.00;102149.25;3588711;40;20060;-60
2021/07/09 04:42:02;;;;;;;31.52;16.55;;;;;;;13.77;100.00;102152.91;3586137;40;20031;-61
2021/07/09 04:44:28;;;;;;;32.03;17.00;;;;;;;13.82;100.00;102153.38;3588128;40;20352;-62
2021/07/09 04:46:55;;;;;;;34.85;18.98;;;;;;;13.90;100.00;102156.34;3588295;40;20434;-61
2021/07/09 04:49:21;;;;;;;32.22;19.05;;;;;;;13.94;100.00;102160.50;3589573;40;20133;-61
2021/07/09 04:51:49;;;;;;;37.60;19.88;;;;;;;14.09;100.00;102163.78;3587607;40;20058;-60
2021/07/09 04:54:16;;;;;;;32.60;18.48;;;;;;;14.27;100.00;102163.25;3591138;40;20477;-61
2021/07/09 04:56:43;;;;;;;34.88;19.48;;;;;;;14.36;100.00;102168.75;3589475;39;20447;-61
2021/07/09 04:59:09;;;;;;;37.63;22.05;;;;;;;14.48;100.00;102155.16;3588323;40;20127;-60
2021/07/09 05:01:36;;;;;;;38.17;21.00;;;;;;;14.60;100.00;102158.66;3589095;40;20078;-60
2021/07/09 05:04:04;;;;;;;42.70;22.65;;;;;;;14.75;100.00;102162.78;3588466;40;20056;-60
2021/07/09 05:06:31;;;;;;;35.08;18.92;;;;;;;14.80;100.00;102157.00;3589132;40;20037;-61
2021/07/09 05:08:58;;;;;;;40.65;21.15;;;;;;;15.62;100.00;102150.72;3588888;40;20488;-61
2021/07/09 05:11:25;;;;;;;35.72;21.40;;;;;;;16.42;100.00;102151.59;3588173;40;20048;-61
2021/07/09 05:13:51;;;;;;;34.75;20.80;;;;;;;16.75;100.00;102149.41;3590694;40;20070;-61
2021/07/09 05:16:18;;;;;;;34.30;20.95;;;;;;;16.11;100.00;102145.44;3587479;40;20036;-60
2021/07/09 05:18:44;;;;;;;32.20;20.20;;;;;;;15.67;100.00;102150.31;3588128;40;20049;-61
2021/07/09 05:21:11;;;;;;;29.73;19.00;;;;;;;15.49;100.00;102139.22;3587988;40;20060;-60
2021/07/09 05:23:37;;;;;;;33.17;20.10;;;;;;;15.52;100.00;102139.81;3586895;40;20410;-61
2021/07/09 05:26:05;;;;;;;33.40;20.83;;;;;;;15.42;100.00;102134.34;3586136;40;20041;-62
2021/07/09 05:28:31;;;;;;;35.47;20.25;;;;;;;15.42;100.00;102150.63;3589633;40;20054;-61
2021/07/09 05:30:58;;;;;;;45.10;23.42;;;;;;;15.45;100.00;102151.38;3587502;40;20036;-62
2021/07/09 05:33:24;;;;;;;37.28;22.23;;;;;;;15.50;100.00;102149.97;3589099;40;20132;-61
2021/07/09 05:35:51;;;;;;;38.70;20.83;;;;;;;15.48;100.00;102148.38;3587707;40;20056;-61
2021/07/09 05:38:17;;;;;;;37.17;20.98;;;;;;;15.53;100.00;102140.66;3591046;40;20064;-62
2021/07/09 05:40:44;;;;;;;44.67;24.15;;;;;;;15.64;100.00;102147.88;3587854;40;20132;-61
2021/07/09 05:43:12;;;;;;;47.67;25.25;;;;;;;15.63;100.00;102141.56;3592487;40;20052;-61
2021/07/09 05:45:38;;;;;;;45.17;25.05;;;;;;;15.75;100.00;102145.03;3587543;40;20054;-61
2021/07/09 05:48:05;;;;;;;42.90;23.00;;;;;;;15.86;100.00;102141.41;3594109;40;20052;-61
2021/07/09 05:50:31;;;;;;;45.20;24.25;;;;;;;15.93;100.00;102139.84;3587532;40;20061;-60
2021/07/09 05:52:58;;;;;;;42.28;23.67;;;;;;;16.03;100.00;102139.84;3587360;40;20049;-60
2021/07/09 05:55:25;;;;;;;37.40;21.40;;;;;;;16.02;100.00;102144.41;3590513;40;20317;-60
2021/07/09 05:57:51;;;;;;;35.85;21.80;;;;;;;16.19;100.00;102145.56;3587227;40;20044;-61
2021/07/09 06:02:44;;;;;;;40.65;21.83;;;;;;;16.35;100.00;102136.84;3614023;22;20040;-61
2021/07/09 06:05:11;;;;;;;43.00;23.70;;;;;;;16.57;100.00;102135.69;3579097;40;20056;-61
2021/07/09 06:07:39;;;;;;;35.22;20.30;;;;;;;16.59;100.00;102135.56;3585120;40;20057;-61
2021/07/09 06:10:07;;;;;;;30.60;19.65;;;;;;;16.66;100.00;102141.28;3587709;40;20129;-60
2021/07/09 06:12:33;;;;;;;35.92;20.30;;;;;;;16.70;100.00;102135.41;3586582;40;20065;-61
2021/07/09 06:15:00;;;;;;;32.45;18.95;;;;;;;16.69;100.00;102136.41;3586199;40;20107;-60
2021/07/09 06:17:27;;;;;;;30.02;19.17;;;;;;;16.82;100.00;102142.38;3582082;40;20305;-61
2021/07/09 06:19:55;;;;;;;31.73;17.98;;;;;;;17.00;100.00;102147.13;3585882;40;20054;-60
2021/07/09 06:22:21;;;;;;;29.95;17.55;;;;;;;17.14;100.00;102141.22;3585312;40;20071;-61
2021/07/09 06:24:48;;;;;;;27.75;16.63;;;;;;;17.31;100.00;102128.72;3583811;40;20059;-61
2021/07/09 06:27:15;;;;;;;25.63;14.98;;;;;;;17.33;100.00;102132.13;3585374;40;20137;-61
2021/07/09 06:29:41;;;;;;;21.88;15.23;;;;;;;17.44;100.00;102139.22;3584384;40;20045;-61
2021/07/09 06:32:08;;;;;;;20.90;14.07;;;;;;;17.35;100.00;102140.13;3585037;40;20043;-61
2021/07/09 06:34:34;;;;;;;20.58;14.27;;;;;;;17.59;100.00;102141.47;3585709;40;20445;-61
2021/07/09 06:37:02;;;;;;;22.85;14.10;;;;;;;18.04;100.00;102148.81;3586277;40;20439;-61
2021/07/09 06:39:29;;;;;;;18.85;12.02;;;;;;;18.03;100.00;102144.38;3586750;40;20097;-60
2021/07/09 06:41:55;;;;;;;16.35;11.10;;;;;;;17.83;100.00;102143.63;3587341;40;20052;-61
2021/07/09 06:56:52;;;;;;;10.68;7.88;;;;;;;18.76;100.00;102157.00;3641991;39;20354;-62
2021/07/09 06:59:19;;;;;;;11.38;7.93;;;;;;;18.70;100.00;102157.63;3636678;39;20403;-61
2021/07/09 07:01:46;;;;;;;10.02;7.55;;;;;;;18.83;100.00;102157.19;3635713;39;21475;-62
2021/07/09 07:04:14;;;;;;;10.40;7.53;;;;;;;18.98;100.00;102150.19;3633854;39;20435;-62
2021/07/09 07:06:41;;;;;;;11.00;7.97;;;;;;;18.85;100.00;102156.03;3635740;39;20050;-62
2021/07/09 07:09:07;;;;;;;12.30;8.57;;;;;;;18.71;100.00;102149.28;3636538;39;20412;-61
2021/07/09 07:11:33;;;;;;;14.60;8.77;;;;;;;19.07;100.00;102157.41;3635699;39;20058;-61
2021/07/09 07:14:01;;;;;;;15.32;9.55;;;;;;;19.11;100.00;102155.22;3634629;39;20072;-62
2021/07/09 07:16:28;;;;;;;13.25;9.80;;;;;;;19.33;100.00;102153.81;3635636;39;20034;-62
2021/07/09 07:18:54;;;;;;;13.45;9.90;;;;;;;18.93;100.00;102151.69;3628253;39;20085;-62
2021/07/09 07:21:20;;;;;;;14.13;10.18;;;;;;;18.97;100.00;102158.53;3634219;39;20062;-62
2021/07/09 07:23:47;;;;;;;18.55;11.45;;;;;;;19.12;100.00;102166.97;3634897;39;20050;-63
2021/07/09 07:26:14;;;;;;;16.42;10.30;;;;;;;19.51;100.00;102152.88;3635540;39;20082;-62
2021/07/09 07:28:40;;;;;;;16.30;10.48;;;;;;;19.71;100.00;102157.06;3629311;39;20321;-62
2021/07/09 07:31:09;;;;;;;15.60;10.30;;;;;;;19.34;100.00;102160.13;3631662;39;20054;-62
2021/07/09 07:33:36;;;;;;;;;;;;;;;19.23;100.00;102162.09;3630400;39;20092;-63
2021/07/09 07:36:02;;;;;;;17.17;11.52;;;;;;;19.21;100.00;102168.75;3633586;39;19942;-61
2021/07/09 07:38:29;;;;;;;15.32;10.55;;;;;;;19.53;100.00;102142.63;3634379;39;20639;-62
2021/07/09 07:40:55;;;;;;;16.52;10.55;;;;;;;19.64;100.00;102153.28;3636756;39;20037;-62
2021/07/09 07:43:22;;;;;;;16.17;10.00;;;;;;;19.76;100.00;102148.38;3636332;39;20053;-62
2021/07/09 07:45:48;;;;;;;15.30;9.30;;;;;;;19.71;100.00;102145.25;3634906;39;20053;-62
2021/07/09 07:48:16;;;;;;;15.05;10.35;;;;;;;20.24;100.00;102138.63;3637264;39;20126;-62
2021/07/09 07:50:43;;;;;;;11.95;9.18;;;;;;;19.82;100.00;102145.00;3634319;39;20410;-62
2021/07/09 07:53:09;;;;;;;16.63;8.90;;;;;;;20.04;100.00;102139.94;3635657;39;20034;-63
2021/07/09 07:55:37;;;;;;;10.10;7.70;;;;;;;19.81;100.00;102151.47;3633416;39;20039;-63
2021/07/09 07:58:04;;;;;;;13.93;8.15;;;;;;;19.95;100.00;102142.66;3624199;39;20055;-62
2021/07/09 08:00:30;;;;;;;12.60;8.00;;;;;;;20.21;100.00;102149.00;3626819;39;20057;-62
2021/07/09 08:02:57;;;;;;;15.70;8.82;;;;;;;20.03;100.00;102143.69;3625901;39;20054;-62
2021/07/09 08:05:26;;;;;;;10.07;6.88;;;;;;;20.79;100.00;102137.09;3624243;39;20325;-62
2021/07/09 08:07:52;;;;;;;11.10;7.38;;;;;;;20.78;100.00;102131.81;3622088;39;20047;-62
2021/07/09 08:10:19;;;;;;;11.35;8.07;;;;;;;20.75;100.00;102137.63;3622029;39;20047;-62
2021/07/09 08:12:45;;;;;;;13.25;8.93;;;;;;;20.12;100.00;102132.59;3626912;39;20038;-62
2021/07/09 08:15:12;;;;;;;15.35;9.77;;;;;;;19.98;100.00;102130.53;3628636;39;20050;-62
2021/07/09 08:17:38;;;;;;;9.85;7.43;;;;;;;20.39;100.00;102130.59;3628003;39;20039;-62
2021/07/09 08:20:06;;;;;;;12.18;7.70;;;;;;;20.43;100.00;102139.28;3624260;39;20056;-62
2021/07/09 08:22:36;;;;;;;10.35;7.07;;;;;;;20.70;100.00;102145.47;3628334;39;20051;-62
2021/07/09 08:25:02;;;;;;;12.50;7.82;;;;;;;21.06;100.00;102145.09;3624315;39;20051;-61
2021/07/09 08:27:29;;;;;;;12.32;7.78;;;;;;;20.56;100.00;102139.63;3626540;39;20055;-61
2021/07/09 08:29:55;;;;;;;10.15;7.05;;;;;;;20.78;100.00;102150.97;3626585;39;20065;-62
2021/07/09 08:32:22;;;;;;;11.55;6.57;;;;;;;20.97;100.00;102153.31;3625195;39;20055;-62
2021/07/09 08:34:48;;;;;;;10.90;7.75;;;;;;;20.88;100.00;102146.16;3626161;39;20063;-62
2021/07/09 08:37:15;;;;;;;10.40;7.32;;;;;;;21.00;100.00;102158.44;3627370;39;21063;-62
2021/07/09 08:39:42;;;;;;;8.00;5.50;;;;;;;21.11;100.00;102146.28;3629041;39;20126;-63
2021/07/09 08:42:09;;;;;;;8.05;5.57;;;;;;;20.86;100.00;102148.19;3627273;39;20051;-62
2021/07/09 08:44:35;;;;;;;8.98;6.20;;;;;;;21.24;100.00;102147.63;3626381;39;20058;-62
2021/07/09 08:47:02;;;;;;;7.93;5.97;;;;;;;21.62;100.00;102142.38;3628809;39;20506;-61
2021/07/09 08:49:29;;;;;;;8.38;5.63;;;;;;;21.53;100.00;102144.31;3628684;39;20098;-62
2021/07/09 08:51:55;;;;;;;10.60;6.53;;;;;;;21.83;100.00;102136.28;3629081;39;20043;-62
2021/07/09 08:54:22;;;;;;;10.23;5.05;;;;;;;21.49;100.00;102135.53;3628784;39;20053;-62
2021/07/09 08:56:51;;;;;;;9.20;5.22;;;;;;;21.47;100.00;102132.13;3628661;39;20047;-62
2021/07/09 08:59:18;;;;;;;7.97;5.35;;;;;;;21.83;100.00;102130.78;3628845;39;20404;-61
2021/07/09 09:01:52;;;;;;;13.38;9.88;;;;;;;22.10;100.00;102136.78;3629311;39;20046;-62
2021/07/09 09:04:27;;;;;;;7.43;5.10;;;;;;;21.62;100.00;102123.19;3629229;39;20053;-62
2021/07/09 09:06:58;;;;;;;8.32;6.55;;;;;;;21.80;100.00;102114.72;3629259;39;20058;-63
2021/07/09 09:09:25;;;;;;;7.90;4.53;;;;;;;22.02;100.00;102124.00;3628227;39;20060;-62
2021/07/09 09:12:10;;;;;;;7.63;4.80;;;;;;;21.96;100.00;102119.25;3628838;39;20146;-62
2021/07/09 09:14:39;;;;;;;5.78;4.22;;;;;;;21.29;100.00;102120.53;3627391;39;20055;-62
2021/07/09 09:17:37;;;;;;;6.03;3.78;;;;;;;22.15;100.00;102128.88;3627958;39;20050;-62
2021/07/09 09:20:13;;;;;;;6.30;3.38;;;;;;;22.21;100.00;102122.66;3573264;40;20025;-62
2021/07/09 09:22:55;;;;;;;4.95;3.20;;;;;;;22.36;100.00;102120.00;3618656;39;20065;-61
2021/07/09 09:25:23;;;;;;;3.78;2.75;;;;;;;22.39;100.00;102114.16;3624300;39;20063;-62
2021/07/09 09:27:59;;;;;;;6.10;3.10;;;;;;;22.57;100.00;102120.19;3627800;39;20043;-62
2021/07/09 09:30:28;;;;;;;5.90;3.70;;;;;;;22.86;100.00;102115.78;3625346;39;20057;-62
2021/07/09 09:32:55;;;;;;;7.72;3.60;;;;;;;22.42;100.00;102105.56;3628018;39;20046;-61
2021/07/09 09:35:22;;;;;;;5.40;3.42;;;;;;;22.15;100.00;102113.28;3624433;39;20050;-62
2021/07/09 09:37:53;;;;;;;5.03;3.47;;;;;;;22.10;100.00;102109.38;3624518;39;20446;-62
2021/07/09 09:40:22;;;;;;;6.72;4.03;;;;;;;21.38;100.00;102099.47;3626049;39;20055;-62
2021/07/09 09:42:48;;;;;;;7.03;4.20;;;;;;;22.09;100.00;102107.69;3622082;39;20058;-62
2021/07/09 09:45:20;;;;;;;4.88;3.33;;;;;;;22.94;100.00;102101.13;3624220;39;20327;-62
2021/07/09 09:47:47;;;;;;;6.35;4.07;;;;;;;23.24;100.00;102096.50;3626650;39;20046;-62
2021/07/09 09:50:16;;;;;;;7.07;3.65;;;;;;;23.28;100.00;102105.25;3627724;39;20111;-62
2021/07/09 09:52:44;;;;;;;5.90;4.15;;;;;;;22.98;100.00;102116.19;3621683;39;20071;-62
2021/07/09 09:55:13;;;;;;;5.38;3.67;;;;;;;22.08;100.00;102108.72;3626145;39;20050;-62
2021/07/09 09:57:41;;;;;;;5.38;3.40;;;;;;;22.83;100.00;102116.16;3625613;39;20055;-62
2021/07/09 10:00:09;;;;;;;4.30;3.20;;;;;;;22.91;100.00;102107.00;3626836;39;20066;-62
2021/07/09 10:02:38;;;;;;;4.05;2.88;;;;;;;22.80;100.00;102112.94;3624433;39;20082;-62
2021/07/09 10:05:05;;;;;;;3.20;2.42;;;;;;;23.35;100.00;102105.31;3623711;39;20047;-61
2021/07/09 10:07:35;;;;;;;5.78;3.70;;;;;;;23.08;100.00;102094.78;3623557;39;20039;-61
2021/07/09 10:10:02;;;;;;;4.32;3.15;;;;;;;23.43;100.00;102094.22;3623355;39;20043;-61
2021/07/09 10:12:30;;;;;;;5.72;3.72;;;;;;;23.01;100.00;102102.09;3622974;39;20059;-62
2021/07/09 10:14:57;;;;;;;5.47;3.40;;;;;;;23.34;100.00;102090.75;3622124;39;20061;-62
2021/07/09 10:17:26;;;;;;;6.88;3.38;;;;;;;23.29;100.00;102087.69;3626401;39;20053;-61
2021/07/09 10:19:54;;;;;;;;;;;;;;;23.33;100.00;102096.41;3625038;39;20350;-62
2021/07/09 10:22:21;;;;;;;4.43;3.22;;;;;;;23.22;100.00;102086.78;3623316;39;19927;-61
2021/07/09 10:24:52;;;;;;;3.85;3.00;;;;;;;23.80;100.00;102084.09;3625632;39;20037;-63
2021/07/09 10:27:21;;;;;;;4.72;3.63;;;;;;;23.84;100.00;102079.91;3621428;39;20368;-62
2021/07/09 10:32:31;;;;;;;6.30;4.35;;;;;;;24.54;100.00;102082.09;3618834;23;20696;-62
2021/07/09 10:34:59;;;;;;;6.53;3.67;;;;;;;24.08;100.00;102080.63;3592624;39;20067;-63
2021/07/09 10:37:28;;;;;;;8.93;3.63;;;;;;;24.14;100.00;102079.81;3595135;39;20044;-63
2021/07/09 10:40:09;;;;;;;4.80;3.53;;;;;;;23.15;100.00;102080.34;3594009;39;20281;-62
2021/07/09 10:42:42;;;;;;;5.30;3.42;;;;;;;22.78;100.00;102082.94;3592550;39;20416;-63
2021/07/09 10:45:20;;;;;;;4.82;3.13;;;;;;;23.37;100.00;102082.09;3594706;39;20076;-63
2021/07/09 10:47:52;;;;;;;8.60;3.70;;;;;;;23.68;100.00;102083.75;3594016;39;20046;-62
2021/07/09 10:50:34;;;;;;;6.45;3.50;;;;;;;23.57;100.00;102079.63;3595464;39;20051;-62
2021/07/09 10:53:01;;;;;;;8.32;4.05;;;;;;;23.08;100.00;102086.53;3594181;39;20048;-62
2021/07/09 10:55:40;;;;;;;5.30;3.80;;;;;;;22.98;100.00;102091.50;3591694;39;20148;-63
2021/07/09 10:58:32;;;;;;;6.82;3.63;;;;;;;23.01;100.00;102091.09;3593489;39;20045;-62
2021/07/09 11:01:09;;;;;;;10.60;3.42;;;;;;;23.67;100.00;102079.28;3594167;39;20051;-63
2021/07/09 11:03:38;;;;;;;5.40;3.65;;;;;;;24.01;100.00;102086.03;3592711;39;20051;-63
2021/07/09 11:06:08;;;;;;;4.75;3.67;;;;;;;24.02;100.00;102082.25;3595940;39;20144;-62
2021/07/09 11:08:52;;;;;;;4.82;3.78;;;;;;;24.36;100.00;102077.06;3598400;39;20051;-63
2021/07/09 11:11:31;;;;;;;4.97;3.60;;;;;;;24.92;100.00;102082.59;3593920;39;20060;-64
2021/07/09 11:14:00;;;;;;;5.68;4.20;;;;;;;25.34;100.00;102075.22;3591031;39;20060;-64
2021/07/09 11:16:30;;;;;;;9.88;4.80;;;;;;;25.53;100.00;102073.63;3590269;39;20044;-64
2021/07/09 11:19:02;;;;;;;7.85;4.40;;;;;;;25.57;100.00;102073.19;3593974;39;20117;-63
2021/07/09 11:21:52;;;;;;;7.22;4.63;;;;;;;26.04;100.00;102074.19;3594761;39;20329;-63
2021/07/09 11:24:21;;;;;;;7.13;4.15;;;;;;;25.59;100.00;102062.81;3600086;39;20048;-64
2021/07/09 11:28:30;;;;;;;6.00;4.10;;;;;;;25.80;100.00;102062.66;3569704;39;1942085;-62
2021/07/09 11:30:57;;;;;;;7.18;4.10;;;;;;;26.03;96.31;102069.72;3613470;39;20031;-63